Time;durP1;ratioP1;P1;durP2;ratioP2;P2;SDS_P1;SDS_P2;PMS_P1;PMS_P2;Temp;Humidity;BMP_temperature;BMP_pressure;BME280_temperature;BME280_humidity;BME280_pressure;Samples;Min_cycle;Max_cycle;Signal;HPM_P1;HPM_P2
2022/08/17 00:00:50;;;;;;;2.35;1.70;;;23.20;64.40;;;;;;6275068;22;20038;-74
2022/08/17 00:03:26;;;;;;;1.58;1.27;;;23.20;64.40;;;;;;6247790;22;20137;-74
2022/08/17 00:05:59;;;;;;;1.80;1.60;;;23.10;64.40;;;;;;6223046;22;20008;-74
2022/08/17 00:08:30;;;;;;;1.38;1.27;;;23.10;64.40;;;;;;6274960;22;20069;-74
2022/08/17 00:10:56;;;;;;;;;;;23.10;64.50;;;;;;6245798;22;20010;-74
2022/08/17 00:13:30;;;;;;;1.30;1.20;;;23.10;65.10;;;;;;6275208;22;19989;-74
2022/08/17 00:16:00;;;;;;;1.40;1.30;;;23.10;64.40;;;;;;6274703;22;20012;-74
2022/08/17 00:18:28;;;;;;;1.30;1.20;;;23.10;64.40;;;;;;6274402;22;20086;-74
2022/08/17 00:20:55;;;;;;;1.67;1.20;;;23.10;64.40;;;;;;6274984;22;20083;-74
2022/08/17 00:23:21;;;;;;;1.58;1.40;;;23.10;64.40;;;;;;6276222;22;20011;-74
2022/08/17 00:25:47;;;;;;;1.70;1.40;;;23.10;64.50;;;;;;6223633;22;20324;-74
2022/08/17 00:28:15;;;;;;;1.38;1.27;;;23.10;64.60;;;;;;6276104;22;20008;-74
2022/08/17 00:30:42;;;;;;;1.35;1.25;;;23.10;64.70;;;;;;6275826;22;20004;-74
2022/08/17 00:33:14;;;;;;;1.40;1.30;;;23.00;64.70;;;;;;6275806;22;20390;-74
2022/08/17 00:35:41;;;;;;;1.52;1.40;;;23.00;64.70;;;;;;6275789;22;20066;-74
2022/08/17 00:38:08;;;;;;;1.50;1.40;;;23.00;64.80;;;;;;6275913;22;20006;-74
2022/08/17 00:40:39;;;;;;;1.58;1.48;;;23.00;64.80;;;;;;6275704;22;20004;-74
2022/08/17 00:43:08;;;;;;;;;;;23.00;64.90;;;;;;6276155;22;20095;-74
2022/08/17 00:45:34;;;;;;;1.40;1.30;;;23.00;64.80;;;;;;6275734;22;20278;-75
2022/08/17 00:48:00;;;;;;;1.73;1.45;;;22.90;64.80;;;;;;6276340;22;20008;-74
2022/08/17 00:50:26;;;;;;;1.90;1.70;;;22.90;64.80;;;;;;6275536;22;20019;-74
2022/08/17 00:52:56;;;;;;;1.88;1.42;;;22.90;64.90;;;;;;6275577;22;20011;-74
2022/08/17 00:55:24;;;;;;;1.58;1.40;;;22.90;64.90;;;;;;6276220;22;20037;-75
2022/08/17 00:57:55;;;;;;;1.75;1.50;;;22.90;65.00;;;;;;6276070;22;20029;-74
2022/08/17 01:00:26;;;;;;;1.63;1.48;;;22.90;65.00;;;;;;6274027;22;20008;-74
2022/08/17 01:02:58;;;;;;;1.50;1.40;;;22.80;65.00;;;;;;6248718;22;20038;-74
2022/08/17 01:05:27;;;;;;;1.70;1.60;;;22.80;65.10;;;;;;6275474;22;20081;-74
2022/08/17 01:07:53;;;;;;;1.80;1.52;;;22.80;65.10;;;;;;6275691;22;20014;-74
2022/08/17 01:10:25;;;;;;;2.45;1.73;;;22.80;65.20;;;;;;6276260;22;20068;-74
2022/08/17 01:12:51;;;;;;;1.60;1.50;;;22.80;65.40;;;;;;6273382;22;20014;-74
2022/08/17 01:15:17;;;;;;;1.70;1.40;;;22.80;65.40;;;;;;6276242;22;20366;-74
2022/08/17 01:17:44;;;;;;;2.15;1.80;;;22.80;65.50;;;;;;6275570;22;20012;-74
2022/08/17 01:20:10;;;;;;;1.92;1.60;;;22.70;65.50;;;;;;6275620;22;20007;-74
2022/08/17 01:22:36;;;;;;;1.70;1.45;;;22.70;65.60;;;;;;6223285;22;20007;-74
2022/08/17 01:25:06;;;;;;;1.85;1.52;;;22.70;65.70;;;;;;6248606;22;20016;-74
2022/08/17 01:27:35;;;;;;;1.73;1.33;;;22.70;65.80;;;;;;6248640;22;20003;-74
2022/08/17 01:30:06;;;;;;;1.63;1.50;;;22.70;65.80;;;;;;6275837;22;20011;-74
2022/08/17 01:32:32;;;;;;;1.88;1.60;;;22.60;65.80;;;;;;6275301;22;20012;-74
2022/08/17 01:34:59;;;;;;;1.73;1.60;;;22.60;65.80;;;;;;6275367;22;20378;-74
2022/08/17 01:37:36;;;;;;;2.70;1.83;;;22.60;65.80;;;;;;6276063;22;20004;-74
2022/08/17 01:40:32;;;;;;;1.83;1.60;;;22.60;65.90;;;;;;6248427;22;20419;-74
2022/08/17 01:43:04;;;;;;;1.67;1.50;;;22.60;65.90;;;;;;6274081;22;20011;-74
2022/08/17 01:45:37;;;;;;;1.60;1.50;;;22.60;65.80;;;;;;6275402;22;20027;-74
2022/08/17 01:48:03;;;;;;;1.55;1.42;;;22.60;65.90;;;;;;6275468;22;20012;-74
2022/08/17 01:50:33;;;;;;;2.45;1.95;;;22.60;65.90;;;;;;6275431;22;20014;-74
2022/08/17 01:53:07;;;;;;;2.10;1.77;;;22.60;66.00;;;;;;6248317;22;20011;-74
2022/08/17 01:55:39;;;;;;;1.85;1.52;;;22.60;66.10;;;;;;6275403;22;20014;-73
2022/08/17 01:58:08;;;;;;;2.45;2.00;;;22.50;66.10;;;;;;6275562;22;20008;-74
2022/08/17 02:00:36;;;;;;;1.75;1.60;;;22.50;66.20;;;;;;6275731;22;20008;-74
2022/08/17 02:03:03;;;;;;;1.58;1.48;;;22.50;66.20;;;;;;6275706;22;20015;-74
2022/08/17 02:05:28;;;;;;;3.13;2.42;;;22.50;66.30;;;;;;6276177;22;20012;-74
2022/08/17 02:07:54;;;;;;;2.92;2.10;;;22.50;66.30;;;;;;6275489;22;20462;-74
2022/08/17 02:10:20;;;;;;;2.10;1.90;;;22.50;66.40;;;;;;6275297;22;20012;-73
2022/08/17 02:12:47;;;;;;;2.35;1.98;;;22.40;66.40;;;;;;6275643;22;20008;-74
2022/08/17 02:15:14;;;;;;;1.95;1.75;;;22.40;66.50;;;;;;6224260;22;20008;-74
2022/08/17 02:17:39;;;;;;;2.50;1.95;;;22.50;66.60;;;;;;6275430;22;20004;-74
2022/08/17 02:20:07;;;;;;;2.17;1.80;;;22.40;66.60;;;;;;6274868;22;20010;-73
2022/08/17 02:22:35;;;;;;;2.10;1.90;;;22.30;66.60;;;;;;6248623;22;20008;-74
2022/08/17 02:25:03;;;;;;;2.65;2.00;;;22.30;66.70;;;;;;6275121;22;20016;-73
2022/08/17 02:27:29;;;;;;;4.50;2.30;;;22.30;66.70;;;;;;6275310;22;20007;-74
2022/08/17 02:29:55;;;;;;;2.58;1.88;;;22.30;66.80;;;;;;6275319;22;20007;-74
2022/08/17 02:32:24;;;;;;;2.45;2.03;;;22.20;66.80;;;;;;6248156;22;20016;-74
2022/08/17 02:34:50;;;;;;;2.05;1.80;;;22.20;66.90;;;;;;6275742;22;20018;-74
2022/08/17 02:37:17;;;;;;;1.67;1.58;;;22.20;66.90;;;;;;6275618;22;20037;-74
2022/08/17 02:39:44;;;;;;;2.63;1.80;;;22.20;66.90;;;;;;6275427;22;20011;-74
2022/08/17 02:42:12;;;;;;;2.05;1.80;;;22.20;67.00;;;;;;6248513;22;20012;-74
2022/08/17 02:44:39;;;;;;;2.25;1.67;;;22.20;67.10;;;;;;6275841;22;20487;-74
2022/08/17 02:47:05;;;;;;;1.83;1.60;;;22.10;67.10;;;;;;6248445;22;20440;-74
2022/08/17 02:49:31;;;;;;;2.80;2.28;;;22.10;67.20;;;;;;6248437;22;20014;-74
2022/08/17 02:51:57;;;;;;;1.95;1.50;;;22.10;67.30;;;;;;6245215;22;20023;-74
2022/08/17 02:54:24;;;;;;;1.85;1.67;;;22.00;67.30;;;;;;6275761;22;20003;-73
2022/08/17 02:56:50;;;;;;;1.70;1.60;;;22.00;67.40;;;;;;6275140;22;20500;-73
2022/08/17 02:59:15;;;;;;;1.85;1.60;;;22.00;67.40;;;;;;6275306;22;20023;-74
2022/08/17 03:01:41;;;;;;;2.08;1.70;;;22.00;67.50;;;;;;6275165;22;20010;-74
2022/08/17 03:04:07;;;;;;;1.80;1.58;;;22.00;67.50;;;;;;6275586;22;20007;-74
2022/08/17 03:06:33;;;;;;;2.10;1.60;;;22.00;67.50;;;;;;6275069;22;20014;-73
2022/08/17 03:08:59;;;;;;;2.38;1.85;;;22.00;67.60;;;;;;6275277;22;20443;-74
2022/08/17 03:11:24;;;;;;;2.05;1.60;;;21.90;67.60;;;;;;6247769;22;20391;-74
2022/08/17 03:13:50;;;;;;;2.20;1.70;;;21.90;67.70;;;;;;6275723;22;20011;-74
2022/08/17 03:16:16;;;;;;;1.70;1.60;;;21.90;67.70;;;;;;6223189;22;20004;-74
2022/08/17 03:18:41;;;;;;;2.30;1.33;;;21.90;67.80;;;;;;6275265;22;20012;-74
2022/08/17 03:21:08;;;;;;;1.77;1.67;;;21.90;67.80;;;;;;6274926;22;20000;-74
2022/08/17 03:23:39;;;;;;;2.58;2.05;;;21.90;67.90;;;;;;6275882;22;20036;-74
2022/08/17 03:26:08;;;;;;;2.10;1.70;;;21.90;67.90;;;;;;6273259;22;20003;-74
2022/08/17 03:28:34;;;;;;;2.45;2.00;;;21.80;67.90;;;;;;6275825;22;20000;-74
2022/08/17 03:30:59;;;;;;;1.67;1.58;;;21.90;67.90;;;;;;6248877;22;20057;-74
2022/08/17 03:33:25;;;;;;;2.15;1.90;;;21.80;67.90;;;;;;6248027;22;20329;-74
2022/08/17 03:35:51;;;;;;;3.13;2.53;;;21.80;68.00;;;;;;6275206;22;20034;-74
2022/08/17 03:38:17;;;;;;;2.63;1.92;;;21.80;68.10;;;;;;6275139;22;20004;-74
2022/08/17 03:40:45;;;;;;;1.75;1.55;;;21.80;68.10;;;;;;6275212;22;20451;-73
2022/08/17 03:43:12;;;;;;;2.78;2.00;;;21.80;68.20;;;;;;6275796;22;21339;-74
2022/08/17 03:59:16;;;;;;;3.40;2.25;;;21.80;68.20;;;;;;6250975;22;20016;-74
2022/08/17 04:01:45;;;;;;;1.92;1.70;;;21.80;68.20;;;;;;6273469;22;20008;-74
2022/08/17 04:04:11;;;;;;;2.55;2.00;;;21.70;68.20;;;;;;6248053;22;20428;-74
2022/08/17 04:06:38;;;;;;;4.90;2.92;;;21.80;68.20;;;;;;6275678;22;20012;-73
2022/08/17 04:09:04;;;;;;;2.13;1.80;;;21.80;68.30;;;;;;6222450;22;20012;-74
2022/08/17 04:11:31;;;;;;;4.03;2.20;;;21.80;68.30;;;;;;6274992;22;20007;-74
2022/08/17 04:13:57;;;;;;;2.85;1.85;;;21.70;68.30;;;;;;6247717;22;20003;-73
2022/08/17 04:16:23;;;;;;;2.00;1.70;;;21.80;68.40;;;;;;6275144;22;20346;-74
2022/08/17 04:18:49;;;;;;;2.80;1.77;;;21.80;68.40;;;;;;6247569;22;20008;-74
2022/08/17 04:21:15;;;;;;;1.90;1.58;;;21.80;68.40;;;;;;6274811;22;20498;-74
2022/08/17 04:23:41;;;;;;;2.03;1.77;;;21.80;68.40;;;;;;6274392;22;20007;-74
2022/08/17 04:26:07;;;;;;;2.42;1.90;;;21.90;68.40;;;;;;6247679;22;20016;-74
2022/08/17 04:28:33;;;;;;;2.08;1.70;;;21.90;68.40;;;;;;6274819;22;20007;-74
2022/08/17 04:30:58;;;;;;;2.33;1.80;;;21.90;68.40;;;;;;6247724;22;20142;-74
2022/08/17 04:33:26;;;;;;;2.08;1.70;;;21.90;68.40;;;;;;6275375;22;20336;-74
2022/08/17 04:35:59;;;;;;;1.63;1.50;;;21.90;68.30;;;;;;6271819;22;20054;-74
2022/08/17 04:38:27;;;;;;;1.75;1.60;;;22.00;68.30;;;;;;6272880;22;20008;-74
2022/08/17 04:43:37;;;;;;;2.20;1.63;;;22.00;68.30;;;;;;6274628;22;20441;-74
2022/08/17 04:46:07;;;;;;;1.50;1.40;;;21.90;68.20;;;;;;6274571;22;20463;-74
2022/08/17 04:48:36;;;;;;;2.33;1.73;;;22.00;68.20;;;;;;6274753;22;21600;-74
2022/08/17 04:51:08;;;;;;;2.33;1.60;;;21.90;68.10;;;;;;6247626;22;20090;-74
2022/08/17 04:53:35;;;;;;;2.53;1.90;;;22.00;68.20;;;;;;6275170;22;20012;-74
2022/08/17 04:56:00;;;;;;;1.50;1.40;;;22.00;68.20;;;;;;6274574;22;20450;-74
2022/08/17 04:58:26;;;;;;;1.85;1.40;;;22.00;68.20;;;;;;6275253;22;20082;-74
2022/08/17 05:00:52;;;;;;;2.47;1.85;;;22.00;68.20;;;;;;6247537;22;20015;-74
2022/08/17 05:03:18;;;;;;;2.17;1.60;;;22.00;68.10;;;;;;6248560;22;20004;-74
2022/08/17 05:05:48;;;;;;;1.30;1.20;;;22.00;68.10;;;;;;6275560;22;20014;-74
2022/08/17 05:08:16;;;;;;;1.45;1.35;;;22.00;68.10;;;;;;6275768;22;20008;-74
2022/08/17 05:10:42;;;;;;;1.58;1.33;;;22.00;68.00;;;;;;6273386;22;20038;-74
2022/08/17 05:13:14;;;;;;;1.40;1.30;;;22.00;68.10;;;;;;6275874;22;20007;-74
2022/08/17 05:15:43;;;;;;;2.00;1.70;;;22.00;68.10;;;;;;6275873;22;20003;-74
2022/08/17 05:18:08;;;;;;;3.35;2.30;;;22.00;68.00;;;;;;6276007;22;20007;-74
2022/08/17 05:20:36;;;;;;;2.08;1.88;;;22.00;68.00;;;;;;6276586;22;20379;-74
2022/08/17 05:23:06;;;;;;;2.33;1.80;;;22.00;68.00;;;;;;6248951;22;20014;-74
2022/08/17 05:25:33;;;;;;;;;;;22.00;68.10;;;;;;6249822;22;20012;-74
2022/08/17 05:27:59;;;;;;;1.63;1.50;;;22.00;68.10;;;;;;6275802;22;19945;-74
2022/08/17 05:30:26;;;;;;;2.10;1.65;;;21.90;68.00;;;;;;6275978;22;20015;-74
2022/08/17 05:32:56;;;;;;;1.50;1.27;;;21.90;68.10;;;;;;6276417;22;20428;-74
2022/08/17 05:35:22;;;;;;;1.67;1.50;;;21.90;68.10;;;;;;6275756;22;20004;-74
2022/08/17 05:37:48;;;;;;;1.90;1.70;;;21.90;68.10;;;;;;6276217;22;20003;-74
2022/08/17 05:40:15;;;;;;;2.10;1.70;;;21.90;68.10;;;;;;6276252;22;20004;-74
2022/08/17 05:42:40;;;;;;;1.90;1.70;;;21.90;68.20;;;;;;6275831;22;20313;-74
2022/08/17 05:45:07;;;;;;;1.65;1.55;;;21.80;68.10;;;;;;6276292;22;20015;-74
2022/08/17 05:47:33;;;;;;;1.88;1.60;;;21.90;68.10;;;;;;6249337;22;20012;-74
2022/08/17 05:50:00;;;;;;;2.03;1.70;;;22.00;68.20;;;;;;6273358;22;20086;-73
2022/08/17 05:52:52;;;;;;;2.17;1.90;;;21.90;68.10;;;;;;6275569;22;20012;-74
2022/08/17 05:55:31;;;;;;;1.92;1.67;;;21.90;68.20;;;;;;6222806;22;20416;-74
2022/08/17 05:58:23;;;;;;;1.60;1.45;;;21.90;68.10;;;;;;6275415;22;20031;-74
2022/08/17 06:01:10;;;;;;;2.95;1.67;;;21.90;68.20;;;;;;6273711;22;20086;-74
2022/08/17 06:03:47;;;;;;;1.40;1.20;;;21.90;68.20;;;;;;6221591;22;20018;-74
2022/08/17 06:06:38;;;;;;;2.28;1.25;;;21.90;68.20;;;;;;6275507;22;20007;-74
2022/08/17 06:09:30;;;;;;;1.67;1.40;;;22.00;68.20;;;;;;6201405;22;20011;-74
2022/08/17 06:12:22;;;;;;;1.55;1.40;;;22.00;68.20;;;;;;6274310;22;20019;-74
2022/08/17 06:15:02;;;;;;;1.83;1.45;;;22.00;68.10;;;;;;6251160;22;20395;-74
2022/08/17 06:17:29;;;;;;;4.22;1.92;;;22.00;68.10;;;;;;6222254;22;20034;-74
2022/08/17 06:19:59;;;;;;;1.73;1.60;;;22.00;68.00;;;;;;6275383;22;20004;-74
2022/08/17 06:22:32;;;;;;;2.10;1.50;;;22.00;68.10;;;;;;6275602;22;20016;-74
2022/08/17 06:25:05;;;;;;;1.58;1.42;;;22.00;68.20;;;;;;6248568;22;20065;-74
2022/08/17 06:27:46;;;;;;;1.42;1.33;;;22.00;68.20;;;;;;6276094;22;20012;-74
2022/08/17 06:30:19;;;;;;;;;;;21.90;68.30;;;;;;6274812;22;20091;-74
2022/08/17 06:32:48;;;;;;;2.35;1.75;;;21.90;68.30;;;;;;6275615;22;20346;-74
2022/08/17 06:35:36;;;;;;;2.73;1.90;;;21.80;68.40;;;;;;6276230;22;20010;-74
2022/08/17 06:38:13;;;;;;;2.25;1.70;;;21.90;68.70;;;;;;6247973;22;20098;-74
2022/08/17 06:41:04;;;;;;;2.40;1.70;;;21.80;68.90;;;;;;6274446;22;20344;-74
2022/08/17 06:43:59;;;;;;;4.38;1.60;;;21.80;69.10;;;;;;6274990;22;20012;-74
2022/08/17 06:46:35;;;;;;;2.00;1.77;;;21.70;69.10;;;;;;6273368;22;20079;-74
2022/08/17 06:49:24;;;;;;;2.75;2.00;;;21.70;69.20;;;;;;6275435;22;20012;-73
2022/08/17 06:52:11;;;;;;;2.13;1.70;;;21.70;69.40;;;;;;6272093;22;20046;-74
2022/08/17 06:55:00;;;;;;;1.80;1.40;;;21.60;69.50;;;;;;6276036;22;20058;-74
2022/08/17 06:57:31;;;;;;;2.05;1.50;;;21.60;69.70;;;;;;6275368;22;20039;-74
2022/08/17 07:00:05;;;;;;;2.20;1.70;;;21.60;69.80;;;;;;6275660;22;20012;-73
2022/08/17 07:03:01;;;;;;;2.03;1.40;;;21.50;69.80;;;;;;6275287;22;20020;-73
2022/08/17 07:05:41;;;;;;;2.10;1.70;;;21.60;69.90;;;;;;6275347;22;20008;-73
2022/08/17 07:08:32;;;;;;;2.28;1.98;;;21.60;70.00;;;;;;6269835;22;20340;-73
2022/08/17 07:11:03;;;;;;;;;;;21.60;70.10;;;;;;6275047;22;20014;-73
2022/08/17 07:13:47;;;;;;;1.40;1.30;;;21.60;70.00;;;;;;6275206;22;19911;-73
2022/08/17 07:16:20;;;;;;;2.75;1.80;;;21.50;69.60;;;;;;6273415;22;20400;-73
2022/08/17 07:18:49;;;;;;;1.98;1.65;;;21.40;70.30;;;;;;6275283;22;20011;-73
2022/08/17 07:21:28;;;;;;;3.10;2.05;;;21.40;70.50;;;;;;6275655;22;20050;-73
2022/08/17 07:24:07;;;;;;;1.88;1.65;;;21.30;70.80;;;;;;6245874;22;20012;-74
2022/08/17 07:26:33;;;;;;;2.63;2.20;;;21.30;70.90;;;;;;6274472;22;20007;-74
2022/08/17 07:29:01;;;;;;;2.58;2.00;;;21.40;71.10;;;;;;6275985;22;20343;-73
2022/08/17 07:31:30;;;;;;;1.60;1.50;;;21.40;71.20;;;;;;6274902;22;20012;-74
2022/08/17 07:34:05;;;;;;;2.95;1.80;;;21.30;71.20;;;;;;6272661;22;20008;-74
2022/08/17 07:36:32;;;;;;;2.90;1.90;;;21.30;71.30;;;;;;6273307;22;20007;-74
2022/08/17 07:39:00;;;;;;;2.83;2.00;;;21.40;71.30;;;;;;6275300;22;20003;-74
2022/08/17 07:41:27;;;;;;;3.53;2.08;;;21.40;71.30;;;;;;6247996;22;20016;-74
2022/08/17 07:43:55;;;;;;;2.38;1.70;;;21.40;71.30;;;;;;6275312;22;20008;-74
2022/08/17 07:49:20;;;;;;;2.13;1.83;;;21.50;71.30;;;;;;6274765;22;20019;-74
2022/08/17 07:51:58;;;;;;;2.25;1.75;;;21.60;71.20;;;;;;6246631;22;20023;-74
2022/08/17 07:54:32;;;;;;;3.15;2.28;;;21.70;71.20;;;;;;6274847;22;20078;-74
2022/08/17 07:57:23;;;;;;;2.47;1.85;;;21.70;71.20;;;;;;6272538;22;20083;-74
2022/08/17 08:00:15;;;;;;;2.30;1.80;;;21.70;71.30;;;;;;6251259;22;20049;-74
2022/08/17 08:02:46;;;;;;;2.13;1.83;;;21.80;71.30;;;;;;6275044;22;20095;-74
2022/08/17 08:05:26;;;;;;;2.05;1.63;;;21.80;71.30;;;;;;6275370;22;20015;-74
2022/08/17 08:08:17;;;;;;;2.55;1.80;;;21.80;71.30;;;;;;6274509;22;20046;-74
2022/08/17 08:10:55;;;;;;;2.38;1.73;;;21.80;71.30;;;;;;6272708;22;20060;-74
2022/08/17 08:13:23;;;;;;;1.70;1.60;;;21.80;71.30;;;;;;6273854;22;20015;-74
2022/08/17 08:15:52;;;;;;;2.17;1.77;;;21.80;71.40;;;;;;6275311;22;20035;-74
2022/08/17 08:18:23;;;;;;;2.40;1.90;;;21.90;71.60;;;;;;6274961;22;20008;-75
2022/08/17 08:21:08;;;;;;;2.83;2.28;;;21.90;71.70;;;;;;6245734;22;20014;-75
2022/08/17 08:23:58;;;;;;;2.55;1.80;;;21.80;71.80;;;;;;6272998;22;20012;-76
2022/08/17 08:27:05;;;;;;;2.05;1.67;;;21.80;72.00;;;;;;6274092;22;20450;-75
2022/08/17 08:30:05;;;;;;;1.63;1.52;;;22.00;72.30;;;;;;6271764;22;20046;-75
2022/08/17 08:32:56;;;;;;;2.20;1.85;;;21.90;72.40;;;;;;6272570;22;20011;-75
2022/08/17 08:35:31;;;;;;;1.92;1.58;;;21.90;72.40;;;;;;6273074;22;20008;-76
2022/08/17 08:38:25;;;;;;;4.95;3.50;;;22.00;72.30;;;;;;6275296;22;20019;-76
2022/08/17 08:41:25;;;;;;;2.17;1.77;;;22.10;72.30;;;;;;6250369;22;20008;-76
2022/08/17 08:44:22;;;;;;;1.67;1.58;;;22.10;72.20;;;;;;6246671;22;20427;-76
2022/08/17 08:47:27;;;;;;;2.67;2.00;;;22.20;72.10;;;;;;6251054;22;20099;-76
2022/08/17 08:50:10;;;;;;;3.08;2.05;;;22.30;72.00;;;;;;6273887;22;20015;-76
2022/08/17 08:52:54;;;;;;;3.25;2.25;;;22.40;72.00;;;;;;6273494;22;20008;-75
2022/08/17 08:55:33;;;;;;;3.50;2.35;;;22.40;72.10;;;;;;6273434;22;20003;-75
2022/08/17 08:58:07;;;;;;;3.33;2.03;;;22.30;72.30;;;;;;6275258;22;20069;-76
2022/08/17 09:00:37;;;;;;;2.47;2.00;;;22.30;72.50;;;;;;6250690;22;20004;-76
2022/08/17 09:03:35;;;;;;;4.68;3.03;;;22.30;72.80;;;;;;6224236;22;20105;-76
2022/08/17 09:06:38;;;;;;;3.55;2.80;;;22.20;72.90;;;;;;6248534;22;20007;-76
2022/08/17 09:09:20;;;;;;;3.42;2.30;;;22.20;73.20;;;;;;6248789;22;20343;-76
2022/08/17 09:12:08;;;;;;;4.15;3.00;;;22.20;73.20;;;;;;6275441;22;20012;-77
2022/08/17 09:14:44;;;;;;;4.32;3.00;;;22.10;73.30;;;;;;6248535;22;20007;-76
2022/08/17 09:17:18;;;;;;;4.43;3.03;;;22.10;73.50;;;;;;6225417;22;20081;-76
2022/08/17 09:19:56;;;;;;;2.70;2.10;;;22.10;73.60;;;;;;6275175;22;20466;-76
2022/08/17 09:22:42;;;;;;;3.85;2.90;;;22.10;73.70;;;;;;6249765;22;20015;-76
2022/08/17 09:25:14;;;;;;;3.53;2.50;;;22.10;73.70;;;;;;6273641;22;20454;-76
2022/08/17 09:27:58;;;;;;;2.92;2.25;;;22.20;73.80;;;;;;6247168;22;20038;-76
2022/08/17 09:30:28;;;;;;;2.83;2.10;;;22.20;73.90;;;;;;6246429;22;20531;-76
2022/08/17 09:32:58;;;;;;;3.25;2.60;;;22.30;73.80;;;;;;6272999;22;20094;-76
2022/08/17 09:35:33;;;;;;;3.97;3.03;;;22.40;73.70;;;;;;6274006;22;20090;-76
2022/08/17 09:38:32;;;;;;;2.55;2.05;;;22.50;73.40;;;;;;6274159;22;20340;-76
2022/08/17 09:41:21;;;;;;;4.60;2.50;;;22.70;73.30;;;;;;6251298;22;20339;-76
2022/08/17 09:44:20;;;;;;;3.28;2.47;;;22.70;73.10;;;;;;6274720;22;20015;-76
2022/08/17 09:47:02;;;;;;;3.17;2.50;;;22.80;73.00;;;;;;6274152;22;20019;-76
2022/08/17 09:49:34;;;;;;;2.63;2.15;;;22.80;72.90;;;;;;6275966;22;20012;-76
2022/08/17 09:52:09;;;;;;;4.35;2.30;;;22.90;73.00;;;;;;6275749;22;20436;-76
2022/08/17 09:54:39;;;;;;;3.65;2.65;;;22.90;72.90;;;;;;6275471;22;20061;-76
2022/08/17 09:57:30;;;;;;;2.90;2.10;;;23.00;72.70;;;;;;6248879;22;20057;-75
2022/08/17 10:00:25;;;;;;;3.47;2.78;;;23.20;72.70;;;;;;6246191;22;20015;-77
2022/08/17 10:03:20;;;;;;;3.53;2.80;;;23.20;72.50;;;;;;6254624;22;20057;-76
2022/08/17 10:06:12;;;;;;;2.92;2.00;;;23.30;72.40;;;;;;6246700;22;20020;-77
2022/08/17 10:09:01;;;;;;;3.40;2.55;;;23.40;72.30;;;;;;6274870;22;20431;-76
2022/08/17 10:14:47;;;;;;;3.17;2.30;;;23.50;72.10;;;;;;6273601;22;20015;-76
2022/08/17 10:17:35;;;;;;;2.60;2.00;;;23.50;72.00;;;;;;6273518;22;20343;-76
2022/08/17 10:20:17;;;;;;;4.05;2.55;;;23.60;72.00;;;;;;6273910;22;19999;-76
2022/08/17 10:26:11;;;;;;;2.35;1.98;;;23.70;71.80;;;;;;6252392;22;20398;-76
2022/08/17 10:28:42;;;;;;;2.38;2.10;;;23.70;71.70;;;;;;6252753;22;20023;-76
2022/08/17 10:31:11;;;;;;;2.35;1.90;;;23.80;71.80;;;;;;6248773;22;20343;-76
2022/08/17 10:33:56;;;;;;;4.40;3.10;;;23.80;71.70;;;;;;6248578;22;20446;-76
2022/08/17 10:36:39;;;;;;;3.38;2.40;;;23.80;71.70;;;;;;6274464;22;20007;-75
2022/08/17 10:39:21;;;;;;;3.50;2.00;;;23.80;71.70;;;;;;6274048;22;20008;-76
2022/08/17 10:41:52;;;;;;;2.38;2.03;;;23.90;71.80;;;;;;6274184;22;20089;-76
2022/08/17 10:44:45;;;;;;;1.90;1.70;;;23.90;71.70;;;;;;6223117;22;20359;-76
2022/08/17 10:47:15;;;;;;;2.95;2.30;;;23.90;71.80;;;;;;6247666;22;20015;-76
2022/08/17 10:49:48;;;;;;;1.92;1.70;;;23.90;71.90;;;;;;6248612;22;20015;-76
2022/08/17 10:52:47;;;;;;;2.35;1.83;;;23.80;72.00;;;;;;6276071;22;20061;-76
2022/08/17 10:55:17;;;;;;;2.45;1.90;;;23.90;72.10;;;;;;6255730;22;20015;-76
2022/08/17 10:57:45;;;;;;;2.60;1.95;;;23.70;72.10;;;;;;6276195;22;20007;-76
2022/08/17 11:00:34;;;;;;;2.53;2.13;;;23.70;72.20;;;;;;6275446;22;20034;-75
2022/08/17 11:03:00;;;;;;;2.97;2.30;;;23.70;72.40;;;;;;6273257;22;20014;-76
2022/08/17 11:05:42;;;;;;;3.33;2.55;;;23.70;72.60;;;;;;6275654;22;20020;-76
2022/08/17 11:08:43;;;;;;;3.40;2.60;;;23.60;72.60;;;;;;6273947;22;20102;-75
2022/08/17 11:11:22;;;;;;;2.47;2.10;;;23.60;72.70;;;;;;6273696;22;20015;-76
2022/08/17 11:14:08;;;;;;;2.85;2.30;;;23.60;72.80;;;;;;6272920;22;20012;-76
2022/08/17 11:17:04;;;;;;;2.28;2.03;;;23.60;72.90;;;;;;6245609;22;20076;-76
2022/08/17 11:26:02;;;;;;;2.42;2.03;;;23.30;73.30;;;;;;6271761;22;20031;-75
2022/08/17 11:28:43;;;;;;;2.80;2.08;;;23.20;73.60;;;;;;6274978;22;20463;-76
2022/08/17 11:31:28;;;;;;;2.95;2.13;;;23.10;73.90;;;;;;6247863;22;20004;-75
2022/08/17 11:34:04;;;;;;;2.38;1.95;;;23.00;74.80;;;;;;6275144;22;20029;-76
2022/08/17 11:36:59;;;;;;;2.92;2.20;;;22.90;74.40;;;;;;6274891;22;20007;-76
2022/08/17 11:39:40;;;;;;;4.47;3.10;;;22.90;74.60;;;;;;6274559;22;20086;-76
2022/08/17 11:42:20;;;;;;;;;;;22.80;74.70;;;;;;6248090;22;20039;-76
2022/08/17 11:44:58;;;;;;;3.35;2.33;;;22.80;74.50;;;;;;6274628;22;19910;-76
2022/08/17 11:53:55;;;;;;;4.20;2.72;;;22.60;74.80;;;;;;6253427;22;20026;-76
2022/08/17 11:56:40;;;;;;;3.45;2.20;;;22.50;75.60;;;;;;6221448;22;20016;-76
2022/08/17 11:59:46;;;;;;;2.30;2.00;;;22.50;75.30;;;;;;6274508;22;20016;-76
2022/08/17 12:02:33;;;;;;;1.77;1.65;;;22.40;75.30;;;;;;6252059;22;20507;-77
2022/08/17 12:05:26;;;;;;;3.33;2.38;;;22.40;75.30;;;;;;6249215;22;20091;-77
2022/08/17 12:08:05;;;;;;;2.45;1.90;;;22.40;75.20;;;;;;6274872;22;20039;-77
2022/08/17 12:10:34;;;;;;;2.97;2.35;;;22.50;75.20;;;;;;6274689;22;20324;-78
2022/08/17 12:13:09;;;;;;;5.35;4.00;;;22.50;75.10;;;;;;6274674;22;20081;-77
2022/08/17 12:15:41;;;;;;;4.07;3.00;;;22.50;75.00;;;;;;6249285;22;20003;-77
2022/08/17 12:18:16;;;;;;;5.30;3.60;;;22.30;75.20;;;;;;6247190;22;20035;-77
2022/08/17 12:20:46;;;;;;;3.25;2.60;;;22.30;75.50;;;;;;6248683;22;20011;-76
2022/08/17 12:23:40;;;;;;;3.70;2.60;;;22.30;76.40;;;;;;6275670;22;20011;-77
2022/08/17 12:26:16;;;;;;;4.90;3.50;;;22.20;75.80;;;;;;6275605;22;20064;-77
2022/08/17 12:28:45;;;;;;;2.75;2.03;;;22.20;75.90;;;;;;6248410;22;20436;-77
2022/08/17 12:31:20;;;;;;;3.72;2.67;;;22.10;75.90;;;;;;6249506;22;20012;-77
2022/08/17 12:33:48;;;;;;;3.70;2.85;;;22.10;76.00;;;;;;6250788;22;20403;-77
2022/08/17 12:36:19;;;;;;;2.85;2.30;;;22.10;76.10;;;;;;6275862;22;20031;-77
2022/08/17 12:38:58;;;;;;;2.30;2.00;;;22.10;76.00;;;;;;6275805;22;20316;-77
2022/08/17 12:41:37;;;;;;;2.78;2.40;;;22.20;76.00;;;;;;6248545;22;20008;-77
2022/08/17 12:44:17;;;;;;;2.53;2.08;;;22.20;75.90;;;;;;6248727;22;20035;-76
2022/08/17 12:46:49;;;;;;;2.38;1.92;;;22.40;75.80;;;;;;6275528;22;20007;-77
2022/08/17 12:49:23;;;;;;;2.50;2.00;;;22.50;75.60;;;;;;6248334;22;20033;-77
2022/08/17 12:51:52;;;;;;;2.42;1.98;;;22.60;75.50;;;;;;6275440;22;20098;-77
2022/08/17 12:54:30;;;;;;;5.13;3.58;;;22.60;75.40;;;;;;6248592;22;20420;-77
2022/08/17 12:57:03;;;;;;;2.45;2.00;;;22.60;75.50;;;;;;6247394;22;20023;-77
2022/08/17 12:59:31;;;;;;;3.13;2.20;;;22.50;75.60;;;;;;6248083;22;20012;-77
2022/08/17 13:01:58;;;;;;;2.95;2.05;;;22.50;75.80;;;;;;6275403;22;20019;-77
2022/08/17 13:04:24;;;;;;;3.40;2.58;;;22.40;75.80;;;;;;6275482;22;20469;-77
2022/08/17 13:06:50;;;;;;;3.58;2.72;;;22.40;75.90;;;;;;6248268;22;20008;-77
2022/08/17 13:09:29;;;;;;;2.90;2.25;;;22.40;76.10;;;;;;6275451;22;20011;-77
2022/08/17 13:11:59;;;;;;;2.85;2.25;;;22.30;76.30;;;;;;6275401;22;20016;-77
2022/08/17 13:14:25;;;;;;;2.38;1.90;;;22.20;76.40;;;;;;6275508;22;20030;-76
2022/08/17 13:16:58;;;;;;;2.13;1.88;;;22.20;76.50;;;;;;6275521;22;20033;-77
2022/08/17 13:19:25;;;;;;;1.90;1.60;;;22.20;76.70;;;;;;6275387;22;20004;-77
2022/08/17 13:21:55;;;;;;;2.40;2.08;;;22.20;76.70;;;;;;6248410;22;20447;-77
2022/08/17 13:24:28;;;;;;;2.50;1.93;;;22.20;76.70;;;;;;6223854;22;20443;-77
2022/08/17 13:27:06;;;;;;;4.00;2.58;;;22.30;76.60;;;;;;6249266;22;20242;-77
2022/08/17 13:29:39;;;;;;;3.58;2.53;;;22.20;76.60;;;;;;6274554;22;20428;-77
2022/08/17 13:32:18;;;;;;;2.47;2.00;;;22.30;76.50;;;;;;6276137;22;20018;-77
2022/08/17 13:34:50;;;;;;;3.85;2.67;;;22.30;76.40;;;;;;6275457;22;20010;-77
2022/08/17 13:37:32;;;;;;;3.00;1.67;;;22.40;76.40;;;;;;6275613;22;20428;-77
2022/08/17 13:40:23;;;;;;;3.45;2.58;;;22.50;76.40;;;;;;6280418;22;20039;-77
2022/08/17 13:42:50;;;;;;;;;;;22.50;76.30;;;;;;6255368;22;20067;-77
2022/08/17 13:45:34;;;;;;;2.05;1.80;;;22.60;76.20;;;;;;6279980;22;19974;-76
2022/08/17 13:48:09;;;;;;;4.97;2.88;;;22.50;76.20;;;;;;6275941;22;20802;-77
2022/08/17 13:50:38;;;;;;;3.25;2.35;;;22.50;76.20;;;;;;6276584;22;20003;-77
2022/08/17 13:53:24;;;;;;;2.87;2.13;;;22.50;76.20;;;;;;6276122;22;20102;-77
2022/08/17 13:55:58;;;;;;;2.90;2.30;;;22.50;76.50;;;;;;6249635;22;20509;-77
2022/08/17 13:58:30;;;;;;;2.60;2.00;;;22.40;76.80;;;;;;6275229;22;20004;-77
2022/08/17 14:00:56;;;;;;;2.67;2.05;;;22.50;76.70;;;;;;6249117;22;20087;-77
2022/08/17 14:03:23;;;;;;;2.85;2.28;;;22.50;76.70;;;;;;6275387;22;20051;-77